Time;durP1;ratioP1;P1;durP2;ratioP2;P2;SDS_P1;SDS_P2;PMS_P1;PMS_P2;Temp;Humidity;BMP_temperature;BMP_pressure;BME280_temperature;BME280_humidity;BME280_pressure;Samples;Min_cycle;Max_cycle;Signal;HPM_P1;HPM_P2
2022/07/12 00:04:05;;;;;;;4.80;1.70;;;;;;;11.78;81.71;99028.37;220208;1276;22576;-73
2022/07/12 00:09:08;;;;;;;3.20;1.80;;;;;;;11.74;81.84;99028.95;220211;1276;22622;-73
2022/07/12 00:14:11;;;;;;;4.50;1.70;;;;;;;11.70;81.86;99028.11;220218;1276;25321;-73
2022/07/12 00:19:13;;;;;;;1.60;1.40;;;;;;;11.68;82.01;99025.50;220104;1276;283698;-75
2022/07/12 00:24:15;;;;;;;1.50;1.40;;;;;;;11.67;82.06;99022.73;220269;1276;22548;-74
2022/07/12 00:29:18;;;;;;;2.30;1.30;;;;;;;11.65;82.22;99024.57;220236;1277;22563;-74
2022/07/12 00:34:20;;;;;;;3.70;1.50;;;;;;;11.62;82.24;99020.64;220209;1278;22557;-74
2022/07/12 00:39:22;;;;;;;2.50;1.70;;;;;;;11.59;82.23;99022.52;220226;1276;22561;-74
2022/07/12 00:44:30;;;;;;;5.70;1.80;;;;;;;11.56;82.28;99029.95;220226;1276;23993;-74
2022/07/12 00:49:33;;;;;;;4.70;1.90;;;;;;;11.53;82.46;99026.93;220315;1277;22486;-74
2022/07/12 00:54:35;;;;;;;2.30;2.00;;;;;;;11.52;82.45;99029.84;220035;1276;22591;-75
2022/07/12 00:59:38;;;;;;;5.80;2.00;;;;;;;11.54;82.69;99034.33;220209;1276;22551;-74
2022/07/12 01:04:43;;;;;;;2.90;1.90;;;;;;;11.59;82.66;99039.23;220214;1276;22544;-73
2022/07/12 01:09:46;;;;;;;1.70;1.50;;;;;;;11.67;82.83;99037.53;220232;1276;24977;-75
2022/07/12 01:14:50;;;;;;;3.80;1.80;;;;;;;11.75;82.87;99037.96;220236;1277;22571;-73
2022/07/12 01:19:58;;;;;;;2.50;1.60;;;;;;;11.82;82.53;99038.63;220254;1278;23059;-74
2022/07/12 01:25:02;;;;;;;2.90;1.70;;;;;;;11.88;82.66;99037.79;220200;1277;22541;-74
2022/07/12 01:30:04;;;;;;;2.00;1.50;;;;;;;11.91;82.52;99032.11;220164;1278;24338;-74
2022/07/12 01:35:07;;;;;;;2.70;1.60;;;;;;;11.91;82.26;99030.05;220186;1277;22593;-73
2022/07/12 01:40:12;;;;;;;3.00;1.30;;;;;;;11.88;82.15;99025.66;220113;1277;22538;-74
2022/07/12 01:45:14;;;;;;;3.00;1.50;;;;;;;11.83;82.26;99023.04;220252;1277;24268;-74
2022/07/12 01:50:17;;;;;;;1.80;1.10;;;;;;;11.77;82.32;99020.11;220087;1277;24236;-73
2022/07/12 01:55:20;;;;;;;2.20;1.60;;;;;;;11.74;82.49;99017.20;220393;1278;25524;-75
2022/07/12 02:00:22;;;;;;;1.90;1.60;;;;;;;11.70;82.58;99018.23;220171;1278;26425;-74
2022/07/12 02:05:25;;;;;;;2.50;1.50;;;;;;;11.68;82.40;99018.64;219982;1278;25408;-74
2022/07/12 02:10:28;;;;;;;1.70;1.30;;;;;;;11.66;82.65;99014.73;220082;1278;22564;-74
2022/07/12 02:15:31;;;;;;;2.10;1.40;;;;;;;11.66;82.82;99013.40;220080;1278;26104;-74
2022/07/12 02:20:41;;;;;;;4.60;1.60;;;;;;;11.63;83.11;99013.27;220346;1276;22898;-74
2022/07/12 02:26:15;;;;;;;1.80;1.70;;;;;;;11.59;83.28;99013.06;220142;1276;22578;-73
2022/07/12 02:31:34;;;;;;;4.20;2.00;;;;;;;11.52;83.24;99011.92;220215;1276;24221;-74
2022/07/12 02:36:37;;;;;;;3.50;1.90;;;;;;;11.50;83.37;99022.90;220181;1276;23135;-73
2022/07/12 02:41:42;;;;;;;3.20;1.70;;;;;;;11.51;83.62;99018.01;220324;1276;22615;-73
2022/07/12 02:46:45;;;;;;;2.70;1.70;;;;;;;11.51;83.66;99019.66;220316;1276;22766;-74
2022/07/12 02:51:47;;;;;;;5.40;2.00;;;;;;;11.48;83.35;99021.42;220274;1276;25266;-74
2022/07/12 02:56:50;;;;;;;2.20;1.80;;;;;;;11.43;83.31;99028.02;220252;1276;22544;-74
2022/07/12 03:01:54;;;;;;;3.20;2.10;;;;;;;11.38;83.41;99034.85;220309;1276;22586;-74
2022/07/12 03:06:58;;;;;;;5.00;2.30;;;;;;;11.32;83.62;99031.92;220250;1276;22588;-73
2022/07/12 03:12:01;;;;;;;6.60;2.70;;;;;;;11.26;83.81;99024.80;220149;1276;22550;-74
2022/07/12 03:17:04;;;;;;;9.00;2.20;;;;;;;11.22;83.79;99033.43;220257;1276;22593;-74
2022/07/12 03:22:06;;;;;;;6.80;2.20;;;;;;;11.18;83.99;99034.05;220079;1276;22575;-74
2022/07/12 03:27:09;;;;;;;4.90;2.60;;;;;;;11.17;83.94;99037.09;220223;1276;22555;-73
2022/07/12 03:32:19;;;;;;;3.10;2.60;;;;;;;11.16;84.17;99040.85;220018;1276;22542;-74
2022/07/12 03:37:22;;;;;;;3.70;3.40;;;;;;;11.14;84.35;99046.33;220146;1276;22744;-74
2022/07/12 03:42:24;;;;;;;5.30;3.70;;;;;;;11.13;84.21;99048.11;220257;1276;23311;-74
2022/07/12 03:47:27;;;;;;;4.70;3.40;;;;;;;11.10;84.23;99047.13;220283;1276;25448;-73
2022/07/12 03:52:29;;;;;;;5.40;3.30;;;;;;;11.09;84.32;99050.09;220275;1276;25364;-74
2022/07/12 03:57:31;;;;;;;3.60;2.40;;;;;;;11.05;84.17;99052.48;220236;1276;22552;-74
2022/07/12 04:02:34;;;;;;;5.10;2.20;;;;;;;11.01;84.15;99054.41;219931;1278;23842;-74
2022/07/12 04:07:37;;;;;;;4.50;2.50;;;;;;;10.97;84.11;99053.70;220129;1279;26528;-75
2022/07/12 04:12:40;;;;;;;4.90;2.20;;;;;;;10.98;84.46;99058.50;219996;1279;22647;-74
2022/07/12 04:17:55;;;;;;;;;;;;;;;;;;;;;
2022/07/12 04:23:05;;;;;;;4.70;3.00;;;;;;;11.07;84.43;99059.48;220098;1278;25253;-74
2022/07/12 04:28:09;;;;;;;2.50;2.20;;;;;;;11.16;84.42;99052.52;220285;1276;25441;-74
2022/07/12 04:33:11;;;;;;;5.10;2.90;;;;;;;11.28;84.54;99051.48;220283;1276;24286;-74
2022/07/12 04:38:14;;;;;;;4.70;2.60;;;;;;;11.45;84.59;99052.79;220243;1276;22543;-73
2022/07/12 04:43:16;;;;;;;3.00;2.20;;;;;;;11.59;84.55;99050.31;220229;1276;24744;-74
2022/07/12 04:48:19;;;;;;;2.90;2.30;;;;;;;11.82;84.92;99045.45;220223;1276;22538;-74
2022/07/12 04:53:31;;;;;;;4.80;2.50;;;;;;;12.12;84.44;99048.53;220365;1276;23332;-74
2022/07/12 04:58:34;;;;;;;2.60;2.30;;;;;;;12.19;83.56;99048.70;220379;1276;22550;-74
2022/07/12 05:03:36;;;;;;;3.40;2.60;;;;;;;12.25;83.76;99046.84;220139;1278;22613;-75
2022/07/12 05:08:41;;;;;;;3.60;2.60;;;;;;;12.38;83.82;99047.72;220211;1277;22541;-74
2022/07/12 05:13:44;;;;;;;3.90;3.40;;;;;;;12.45;83.27;99047.02;220378;1276;22547;-74
2022/07/12 05:18:47;;;;;;;4.00;3.60;;;;;;;12.43;82.98;99046.66;220203;1276;22562;-76
2022/07/12 05:23:49;;;;;;;4.20;3.80;;;;;;;12.44;82.99;99050.25;220192;1276;22642;-74
2022/07/12 05:28:52;;;;;;;4.30;3.70;;;;;;;12.52;83.19;99051.95;220290;1277;22540;-74
2022/07/12 05:33:54;;;;;;;4.50;3.50;;;;;;;12.66;83.57;99054.23;219928;1279;22721;-74
2022/07/12 05:39:10;;;;;;;5.10;4.00;;;;;;;12.83;83.29;99051.85;220299;1278;22567;-74
2022/07/12 05:44:32;;;;;;;4.60;3.80;;;;;;;12.99;83.10;99058.23;220074;1279;25225;-73
2022/07/12 05:49:35;;;;;;;5.00;3.10;;;;;;;13.18;83.22;99060.55;220280;1276;22581;-75
2022/07/12 05:54:40;;;;;;;3.70;3.10;;;;;;;13.39;83.00;99046.41;220418;1276;23252;-72
2022/07/12 05:59:46;;;;;;;3.60;2.50;;;;;;;13.59;82.69;99042.52;220655;1276;22596;-74
2022/07/12 06:04:54;;;;;;;3.50;2.60;;;;;;;13.82;82.48;99037.12;220700;1276;22631;-76
2022/07/12 06:09:56;;;;;;;4.10;2.30;;;;;;;14.04;82.04;99036.35;220703;1276;23413;-73
2022/07/12 06:14:59;;;;;;;2.70;1.90;;;;;;;14.28;81.69;99037.08;220486;1276;24280;-74
2022/07/12 06:20:03;;;;;;;2.40;2.10;;;;;;;14.47;80.99;99041.58;220577;1276;22543;-73
2022/07/12 06:25:07;;;;;;;3.20;1.90;;;;;;;14.61;80.66;99043.29;220591;1276;24230;-74
2022/07/12 06:30:41;;;;;;;1.90;1.50;;;;;;;14.89;80.61;99034.66;220545;1276;22613;-74
2022/07/12 06:36:03;;;;;;;2.50;1.60;;;;;;;15.12;79.71;99038.98;220625;1276;23108;-74
2022/07/12 06:42:22;;;;;;;2.20;1.70;;;;;;;15.26;78.63;99029.31;220549;1276;23056;-75
2022/07/12 06:47:58;;;;;;;1.80;1.50;;;;;;;15.45;78.31;99033.63;220556;1276;24202;-75
2022/07/12 06:53:08;;;;;;;3.10;1.30;;;;;;;15.71;77.86;99040.76;220855;1276;24282;-74
2022/07/12 06:58:10;;;;;;;2.00;0.90;;;;;;;15.94;76.56;99036.58;220441;1276;22551;-74
2022/07/12 07:03:13;;;;;;;1.20;1.00;;;;;;;16.16;76.00;99039.40;220147;1276;23081;-75
2022/07/12 07:08:16;;;;;;;1.80;1.20;;;;;;;16.42;75.26;99042.81;220387;1276;22830;-75
2022/07/12 07:13:18;;;;;;;2.00;1.10;;;;;;;16.66;74.11;99042.45;220561;1276;24416;-75
2022/07/12 07:18:40;;;;;;;3.50;1.50;;;;;;;16.90;73.57;99043.50;220680;1276;22712;-74
2022/07/12 07:23:43;;;;;;;1.10;0.90;;;;;;;17.17;72.43;99054.80;220724;1276;24293;-75
2022/07/12 07:34:17;;;;;;;;;;;;;;;;;;;;;
2022/07/12 07:39:31;;;;;;;0.90;0.90;;;;;;;17.63;68.15;99061.04;220595;1276;22538;-76
2022/07/12 07:44:43;;;;;;;1.90;0.90;;;;;;;17.88;67.95;99054.25;220609;1276;22612;-73
2022/07/12 07:50:20;;;;;;;1.60;0.80;;;;;;;18.45;66.14;99058.77;220404;1276;22751;-73
2022/07/12 07:55:25;;;;;;;1.50;0.50;;;;;;;18.55;64.33;99072.40;220591;1276;25323;-73
2022/07/12 08:00:29;;;;;;;2.90;0.80;;;;;;;18.60;63.49;99072.92;220407;1276;23730;-74
2022/07/12 08:05:32;;;;;;;1.30;0.60;;;;;;;18.86;62.50;99073.75;220757;1276;25318;-74
2022/07/12 08:10:47;;;;;;;3.00;0.60;;;;;;;19.20;62.52;99078.99;220458;1276;25482;-75
2022/07/12 08:15:50;;;;;;;3.40;0.80;;;;;;;19.55;60.98;99070.70;220418;1276;25526;-73
2022/07/12 08:20:56;;;;;;;0.70;0.60;;;;;;;19.74;59.18;99068.16;220542;1276;26583;-74
2022/07/12 08:25:58;;;;;;;0.80;0.70;;;;;;;19.69;59.87;99071.05;220429;1276;25385;-74
2022/07/12 08:31:01;;;;;;;3.30;0.80;;;;;;;19.75;59.45;99074.27;220511;1276;22633;-73
2022/07/12 08:36:06;;;;;;;3.00;0.60;;;;;;;19.83;58.69;99077.08;220379;1276;22724;-73
2022/07/12 08:41:31;;;;;;;0.60;0.60;;;;;;;19.92;58.15;99067.97;220394;1276;24223;-74
2022/07/12 08:46:36;;;;;;;0.80;0.40;;;;;;;19.74;58.19;99073.46;220349;1276;25357;-73
2022/07/12 08:51:41;;;;;;;0.80;0.50;;;;;;;19.70;58.24;99069.39;220493;1276;25931;-73
2022/07/12 08:56:45;;;;;;;1.40;0.60;;;;;;;19.87;58.04;99068.42;220596;1276;23330;-73
2022/07/12 09:01:52;;;;;;;1.50;0.60;;;;;;;20.19;58.21;99063.57;220618;1276;25263;-74
2022/07/12 09:07:34;;;;;;;1.10;0.70;;;;;;;20.56;56.52;99063.20;220606;1276;22628;-73
2022/07/12 09:12:37;;;;;;;1.30;0.80;;;;;;;20.51;55.42;99066.02;220602;1276;24274;-73
2022/07/12 09:18:05;;;;;;;1.90;0.70;;;;;;;20.46;55.81;99066.66;220824;1279;22621;-74
2022/07/12 09:23:12;;;;;;;1.70;0.60;;;;;;;20.84;56.21;99055.39;220330;1276;22575;-73
2022/07/12 09:28:15;;;;;;;1.00;0.60;;;;;;;21.26;54.55;99057.81;220680;1276;22560;-74
2022/07/12 09:39:01;;;;;;;2.00;0.60;;;;;;;21.28;53.20;99056.15;220412;1276;22540;-73
2022/07/12 09:44:13;;;;;;;0.90;0.70;;;;;;;21.40;52.41;99053.32;220473;1276;22594;-74
2022/07/12 09:49:19;;;;;;;1.60;0.80;;;;;;;21.46;52.37;99048.25;220264;1276;22626;-74
2022/07/12 09:54:31;;;;;;;0.80;0.70;;;;;;;21.33;50.78;99056.96;220472;1276;22557;-73
2022/07/12 09:59:39;;;;;;;1.10;0.60;;;;;;;20.86;50.99;99062.29;220576;1276;23139;-74
2022/07/12 10:04:48;;;;;;;0.90;0.60;;;;;;;20.47;51.69;99070.34;220695;1276;22756;-74
2022/07/12 10:10:01;;;;;;;0.90;0.70;;;;;;;20.05;51.89;99066.30;220472;1276;22946;-74
2022/07/12 10:15:12;;;;;;;3.10;0.80;;;;;;;19.82;52.50;99069.84;220376;1276;24345;-75
2022/07/12 10:20:28;;;;;;;0.70;0.70;;;;;;;19.72;53.01;99074.41;220450;1276;22574;-75
2022/07/12 10:25:40;;;;;;;1.80;1.00;;;;;;;19.66;54.48;99075.07;220509;1276;24229;-74
2022/07/12 10:31:06;;;;;;;1.10;0.80;;;;;;;19.31;55.79;99063.36;220405;1276;22565;-75
2022/07/12 10:36:18;;;;;;;0.50;0.50;;;;;;;19.42;57.33;99060.66;220443;1276;23118;-74
2022/07/12 10:41:36;;;;;;;1.80;0.50;;;;;;;19.97;56.69;99050.77;220422;1276;23293;-74
2022/07/12 10:47:00;;;;;;;1.30;0.50;;;;;;;20.63;56.30;99043.41;220574;1276;25370;-75
2022/07/12 10:52:13;;;;;;;1.40;0.60;;;;;;;20.96;53.48;99033.67;220509;1276;25325;-74
2022/07/12 10:57:15;;;;;;;1.60;0.80;;;;;;;21.31;52.63;99030.92;220268;1276;22685;-73
2022/07/12 11:02:42;;;;;;;1.30;0.60;;;;;;;21.70;51.16;99021.98;220527;1276;22627;-73
2022/07/12 11:07:56;;;;;;;1.00;0.50;;;;;;;21.87;50.26;99016.43;220381;1276;24238;-74
2022/07/12 11:13:02;;;;;;;1.90;0.90;;;;;;;21.98;49.67;99011.60;220504;1276;22602;-73
2022/07/12 11:18:25;;;;;;;0.80;0.60;;;;;;;22.04;49.02;99003.59;220853;1277;23491;-73
2022/07/12 11:23:29;;;;;;;1.20;0.50;;;;;;;21.90;48.44;99006.36;220477;1276;25385;-74
2022/07/12 11:28:32;;;;;;;1.00;0.60;;;;;;;22.01;47.51;99000.52;220386;1279;25263;-74
2022/07/12 11:33:37;;;;;;;1.50;0.60;;;;;;;22.06;47.27;98992.43;220213;1277;25382;-73
2022/07/12 11:38:47;;;;;;;0.90;0.60;;;;;;;21.89;46.49;98997.31;220530;1277;25195;-74
2022/07/12 11:43:50;;;;;;;0.40;0.40;;;;;;;21.56;46.17;99005.50;220422;1278;24070;-73
2022/07/12 11:48:55;;;;;;;0.70;0.30;;;;;;;21.50;46.72;99003.25;220491;1276;22760;-73
2022/07/12 11:53:57;;;;;;;1.70;0.60;;;;;;;21.79;46.04;98989.48;220266;1276;22488;-73
2022/07/12 11:59:09;;;;;;;1.10;0.40;;;;;;;22.05;46.33;98981.42;220534;1276;22546;-74
2022/07/12 12:04:11;;;;;;;0.40;0.40;;;;;;;22.06;45.96;98987.12;220530;1276;23313;-74
2022/07/12 12:09:26;;;;;;;0.50;0.50;;;;;;;22.27;45.72;98983.02;220472;1277;27721;-75
2022/07/12 12:14:28;;;;;;;1.80;0.50;;;;;;;22.45;45.57;98982.25;220263;1279;22577;-73
2022/07/12 12:19:31;;;;;;;0.70;0.50;;;;;;;22.63;45.37;98981.46;219954;1277;554580;-74
2022/07/12 12:25:18;;;;;;;0.80;0.50;;;;;;;22.68;44.57;98978.52;220345;1276;25404;-74
2022/07/12 12:30:20;;;;;;;0.60;0.50;;;;;;;22.64;43.37;98972.98;220192;1276;22614;-74
2022/07/12 12:35:40;;;;;;;0.40;0.40;;;;;;;22.50;43.29;98985.54;220614;1277;24229;-75
2022/07/12 12:40:51;;;;;;;1.70;0.70;;;;;;;22.52;44.08;98977.06;220265;1277;22586;-74
2022/07/12 12:45:56;;;;;;;1.30;0.60;;;;;;;22.73;44.76;98963.07;220230;1277;25370;-74
2022/07/12 12:51:10;;;;;;;0.50;0.40;;;;;;;23.20;44.88;98963.17;220799;1277;22746;-75
2022/07/12 12:56:14;;;;;;;0.60;0.50;;;;;;;23.62;44.25;98959.44;220507;1276;26560;-73
2022/07/12 13:01:17;;;;;;;1.30;1.10;;;;;;;23.63;43.58;98951.64;220610;1277;22543;-74
2022/07/12 13:06:23;;;;;;;0.90;0.40;;;;;;;23.54;43.07;98957.39;220218;1279;22804;-75
2022/07/12 13:11:35;;;;;;;2.00;0.50;;;;;;;23.51;43.55;98952.98;220403;1276;25401;-75
2022/07/12 13:16:39;;;;;;;1.20;0.60;;;;;;;23.83;42.63;98951.96;220528;1276;22579;-74
2022/07/12 13:21:48;;;;;;;1.90;0.60;;;;;;;24.24;42.27;98947.66;220489;1278;22557;-73
2022/07/12 13:27:01;;;;;;;0.60;0.60;;;;;;;24.41;41.62;98945.31;220700;1278;22562;-74
2022/07/12 13:32:12;;;;;;;1.30;0.60;;;;;;;24.36;40.09;98944.02;220664;1276;22563;-75
2022/07/12 13:37:18;;;;;;;1.60;0.70;;;;;;;23.86;39.94;98952.16;220616;1276;25270;-76
2022/07/12 13:42:20;;;;;;;0.60;0.60;;;;;;;23.38;41.24;98947.27;220535;1278;22545;-76
2022/07/12 13:47:42;;;;;;;;;;;;;;;;;;;;;
2022/07/12 13:52:48;;;;;;;0.60;0.30;;;;;;;22.57;41.26;98955.02;220624;1276;22778;-74
2022/07/12 13:57:54;;;;;;;2.60;0.60;;;;;;;22.24;41.99;98957.06;220115;1276;24807;-75
2022/07/12 14:03:00;;;;;;;0.60;0.40;;;;;;;21.99;42.92;98966.50;220478;1276;22779;-75
2022/07/12 14:08:30;;;;;;;0.90;0.60;;;;;;;21.81;44.01;98957.58;220144;1280;24366;-75
2022/07/12 14:14:09;;;;;;;2.20;0.50;;;;;;;21.85;44.88;98954.94;220293;1278;22673;-74
2022/07/12 14:19:25;;;;;;;0.50;0.50;;;;;;;22.10;45.24;98948.08;220123;1277;22535;-74
2022/07/12 14:24:35;;;;;;;0.70;0.50;;;;;;;22.32;45.21;98942.80;220327;1281;22713;-75
2022/07/12 14:29:37;;;;;;;0.40;0.30;;;;;;;22.45;44.85;98934.60;220086;1277;24288;-75
2022/07/12 14:34:40;;;;;;;1.80;0.50;;;;;;;22.61;45.02;98935.48;220124;1278;23461;-74
2022/07/12 14:39:56;;;;;;;0.70;0.40;;;;;;;23.02;44.73;98933.25;220304;1277;22574;-76
2022/07/12 14:44:58;;;;;;;1.00;0.50;;;;;;;23.52;44.54;98931.75;220182;1276;22963;-75
2022/07/12 14:50:07;;;;;;;0.70;0.40;;;;;;;23.88;43.30;98935.17;219987;1278;25479;-74
2022/07/12 14:55:09;;;;;;;0.60;0.60;;;;;;;23.82;41.59;98933.34;220088;1278;24382;-74
2022/07/12 15:00:15;;;;;;;0.60;0.40;;;;;;;23.74;41.72;98931.85;219907;1278;22597;-75
2022/07/12 15:05:18;;;;;;;0.50;0.50;;;;;;;23.64;41.19;98928.86;220188;1281;22541;-76
2022/07/12 15:10:20;;;;;;;0.90;0.50;;;;;;;23.43;41.09;98929.68;220316;1278;22564;-74
2022/07/12 15:15:23;;;;;;;3.20;1.50;;;;;;;23.11;41.41;98934.64;220060;1278;22641;-75
2022/07/12 15:20:27;;;;;;;1.40;0.50;;;;;;;22.73;41.46;98941.46;219956;1278;25416;-76
2022/07/12 15:25:35;;;;;;;2.00;0.70;;;;;;;22.41;42.01;98946.14;219955;1278;22713;-76
2022/07/12 15:30:37;;;;;;;0.70;0.50;;;;;;;22.25;42.88;98948.17;220187;1277;22558;-75
2022/07/12 15:35:47;;;;;;;0.50;0.50;;;;;;;22.28;42.96;98943.11;220164;1278;24239;-75
2022/07/12 15:40:51;;;;;;;1.20;0.40;;;;;;;22.44;42.66;98941.92;219943;1278;22571;-75
2022/07/12 15:45:53;;;;;;;0.60;0.50;;;;;;;22.63;42.94;98937.63;220136;1279;22557;-74
2022/07/12 15:50:57;;;;;;;2.20;0.50;;;;;;;22.89;42.88;98932.49;219883;1278;24244;-75
2022/07/12 15:56:02;;;;;;;0.40;0.40;;;;;;;23.19;42.82;98925.23;219817;1278;26530;-75
2022/07/12 16:01:07;;;;;;;0.70;0.50;;;;;;;23.43;42.84;98920.70;220054;1277;22761;-75
2022/07/12 16:06:09;;;;;;;0.30;0.30;;;;;;;23.46;42.69;98920.27;220016;1277;22734;-75
2022/07/12 16:11:12;;;;;;;0.60;0.60;;;;;;;23.32;42.21;98919.63;220172;1278;22573;-75
2022/07/12 16:16:17;;;;;;;0.50;0.50;;;;;;;23.09;42.57;98916.58;219955;1278;22557;-75
2022/07/12 16:21:19;;;;;;;0.80;0.50;;;;;;;22.94;42.63;98915.33;220041;1278;22574;-75
2022/07/12 16:26:32;;;;;;;0.40;0.40;;;;;;;22.80;43.13;98909.80;219968;1278;22586;-75
2022/07/12 16:31:35;;;;;;;1.40;1.30;;;;;;;22.81;43.12;98907.09;219973;1276;25919;-75
2022/07/12 16:36:58;;;;;;;0.60;0.60;;;;;;;22.78;43.18;98906.11;220025;1277;22546;-75
2022/07/12 16:42:02;;;;;;;0.30;0.30;;;;;;;22.69;42.69;98903.02;219944;1277;22503;-74
2022/07/12 16:47:14;;;;;;;1.00;0.40;;;;;;;22.69;42.21;98900.13;220010;1277;24232;-74
2022/07/12 16:52:16;;;;;;;0.60;0.50;;;;;;;22.67;41.46;98903.92;220249;1277;24785;-75
2022/07/12 16:57:19;;;;;;;1.60;0.50;;;;;;;22.68;41.26;98903.24;220141;1278;22595;-75
2022/07/12 17:02:22;;;;;;;0.50;0.50;;;;;;;22.77;41.19;98904.63;220017;1277;22560;-75
2022/07/12 17:07:24;;;;;;;0.60;0.40;;;;;;;22.87;41.29;98910.30;219985;1277;22522;-75
2022/07/12 17:12:31;;;;;;;0.50;0.40;;;;;;;22.92;41.43;98910.37;220047;1277;23100;-76
2022/07/12 17:17:40;;;;;;;0.70;0.40;;;;;;;23.31;41.16;98906.48;220016;1278;22566;-76
2022/07/12 17:22:42;;;;;;;0.50;0.50;;;;;;;24.69;40.18;98899.75;220110;1278;25620;-74
2022/07/12 17:27:45;;;;;;;0.80;0.60;;;;;;;26.15;38.24;98900.91;219967;1278;22573;-75
2022/07/12 17:32:48;;;;;;;1.00;0.50;;;;;;;27.02;36.71;98903.40;220079;1277;25428;-74
2022/07/12 17:37:51;;;;;;;1.20;0.70;;;;;;;27.88;36.06;98899.56;220019;1277;24221;-76
2022/07/12 17:42:53;;;;;;;0.60;0.50;;;;;;;28.21;35.04;98894.64;219898;1278;22546;-74
2022/07/12 17:48:06;;;;;;;0.50;0.50;;;;;;;27.00;34.38;98899.08;220050;1278;22589;-76
2022/07/12 17:53:21;;;;;;;0.60;0.60;;;;;;;25.62;35.44;98898.10;219923;1278;22596;-78
2022/07/12 17:58:37;;;;;;;0.60;0.50;;;;;;;24.62;36.47;98901.44;220068;1277;22563;-74
2022/07/12 18:04:00;;;;;;;0.50;0.50;;;;;;;23.76;37.78;98903.74;220207;1277;24232;-74
2022/07/12 18:09:17;;;;;;;0.60;0.60;;;;;;;23.20;38.79;98899.86;220146;1276;23023;-74
2022/07/12 18:19:41;;;;;;;0.60;0.60;;;;;;;22.60;40.13;98891.34;219997;1278;22732;-73
2022/07/12 18:24:43;;;;;;;2.20;1.40;;;;;;;22.34;40.83;98890.84;219960;1276;22645;-75
2022/07/12 18:29:45;;;;;;;1.00;1.00;;;;;;;22.08;41.33;98891.77;220234;1276;24251;-75
2022/07/12 18:34:48;;;;;;;0.70;0.70;;;;;;;21.75;41.53;98887.52;220045;1276;22559;-74
2022/07/12 18:39:55;;;;;;;1.00;0.60;;;;;;;21.41;42.15;98895.45;220216;1277;23455;-75
2022/07/12 18:44:58;;;;;;;0.60;0.60;;;;;;;21.08;42.65;98894.45;220288;1277;22788;-75
2022/07/12 18:50:00;;;;;;;0.50;0.50;;;;;;;20.81;43.16;98896.95;220144;1277;22589;-75
2022/07/12 18:55:04;;;;;;;0.80;0.60;;;;;;;20.56;43.65;98904.44;220077;1277;22576;-75
2022/07/12 19:00:10;;;;;;;1.90;0.50;;;;;;;20.32;44.05;98908.05;219880;1277;25254;-74
2022/07/12 19:05:14;;;;;;;2.80;0.60;;;;;;;20.08;44.46;98911.55;220090;1278;23232;-74
2022/07/12 19:10:16;;;;;;;0.60;0.60;;;;;;;19.83;44.79;98915.30;220379;1277;25265;-75
2022/07/12 19:15:18;;;;;;;0.70;0.60;;;;;;;19.59;45.27;98916.20;220198;1276;22600;-75
2022/07/12 19:20:21;;;;;;;0.90;0.80;;;;;;;19.37;45.68;98913.61;220071;1276;22639;-74
2022/07/12 19:25:29;;;;;;;1.00;0.90;;;;;;;19.16;46.25;98908.75;220180;1276;22561;-76
2022/07/12 19:30:31;;;;;;;1.00;0.80;;;;;;;18.98;46.58;98908.20;220218;1278;22665;-75
2022/07/12 19:35:33;;;;;;;1.30;0.80;;;;;;;18.83;46.86;98912.67;220201;1276;22565;-75
2022/07/12 19:40:36;;;;;;;1.70;0.90;;;;;;;18.68;47.34;98909.10;220177;1276;22679;-75
2022/07/12 19:45:42;;;;;;;1.10;0.90;;;;;;;18.52;47.67;98909.36;220142;1276;25408;-75
2022/07/12 19:50:44;;;;;;;1.20;0.70;;;;;;;18.35;48.24;98907.58;220122;1276;24800;-74
2022/07/12 19:55:47;;;;;;;1.10;0.90;;;;;;;18.19;48.43;98907.60;220192;1276;24259;-75
2022/07/12 20:00:55;;;;;;;2.40;1.60;;;;;;;18.04;48.83;98911.80;220290;1276;22585;-75
2022/07/12 20:05:57;;;;;;;1.50;1.00;;;;;;;17.89;49.11;98915.61;220272;1276;22540;-75
2022/07/12 20:11:00;;;;;;;2.00;1.50;;;;;;;17.76;49.45;98915.90;220259;1277;22571;-74
2022/07/12 20:16:02;;;;;;;2.00;1.10;;;;;;;17.60;49.72;98913.41;220105;1276;22586;-74
2022/07/12 20:21:05;;;;;;;2.70;1.70;;;;;;;17.44;50.13;98915.30;220147;1276;25486;-74
2022/07/12 20:26:07;;;;;;;2.10;1.30;;;;;;;17.28;50.43;98919.14;220060;1276;22843;-74
2022/07/12 20:31:09;;;;;;;2.00;1.00;;;;;;;17.12;50.89;98923.54;220534;1276;24271;-74
2022/07/12 20:36:12;;;;;;;1.50;1.00;;;;;;;16.96;51.20;98932.14;220177;1276;25256;-76
2022/07/12 20:41:16;;;;;;;2.30;1.30;;;;;;;16.81;51.68;98935.18;219955;1278;24247;-74
2022/07/12 20:46:22;;;;;;;1.20;1.10;;;;;;;16.65;52.17;98934.80;220107;1278;25383;-75
2022/07/12 20:51:24;;;;;;;1.70;1.40;;;;;;;16.49;52.48;98936.48;220197;1278;24197;-75
2022/07/12 20:56:26;;;;;;;2.10;1.30;;;;;;;16.32;52.94;98942.73;220159;1278;24227;-74
2022/07/12 21:01:29;;;;;;;1.80;1.60;;;;;;;16.16;53.44;98944.77;220063;1278;22561;-75
2022/07/12 21:06:32;;;;;;;2.10;1.50;;;;;;;16.00;53.89;98947.73;220273;1277;22531;-74
2022/07/12 21:11:36;;;;;;;1.30;1.00;;;;;;;15.84;54.09;98951.14;220096;1276;24235;-73
2022/07/12 21:16:39;;;;;;;1.90;1.10;;;;;;;15.69;54.47;98955.25;220320;1276;22660;-74
2022/07/12 21:21:42;;;;;;;0.90;0.80;;;;;;;15.58;54.88;98956.07;220312;1276;24085;-74
2022/07/12 21:26:48;;;;;;;2.00;0.80;;;;;;;15.51;54.99;98955.46;220310;1276;25485;-75
2022/07/12 21:31:56;;;;;;;1.30;0.90;;;;;;;15.44;55.20;98954.03;220241;1276;24234;-73
2022/07/12 21:36:58;;;;;;;0.80;0.80;;;;;;;15.35;55.41;98948.94;220253;1276;23051;-75
2022/07/12 21:42:02;;;;;;;1.80;0.90;;;;;;;15.27;55.75;98948.36;220052;1278;22558;-73
2022/07/12 21:47:04;;;;;;;1.40;0.90;;;;;;;15.20;56.01;98944.02;220061;1277;22706;-76
2022/07/12 21:52:10;;;;;;;1.50;1.00;;;;;;;15.14;56.26;98944.89;220155;1277;22728;-75
2022/07/12 21:57:15;;;;;;;0.80;0.80;;;;;;;15.08;56.49;98944.70;220138;1277;22631;-75
2022/07/12 22:02:30;;;;;;;0.80;0.80;;;;;;;15.03;56.79;98943.89;220110;1279;22617;-75
2022/07/12 22:07:36;;;;;;;1.40;1.20;;;;;;;14.98;57.01;98945.45;219931;1279;22649;-74
2022/07/12 22:12:38;;;;;;;2.10;0.90;;;;;;;14.93;57.17;98949.13;220071;1277;22538;-75
2022/07/12 22:17:42;;;;;;;1.50;1.10;;;;;;;14.90;57.31;98949.79;220001;1278;25416;-74
2022/07/12 22:22:44;;;;;;;1.20;0.80;;;;;;;14.85;57.47;98951.95;220259;1278;24274;-74
2022/07/12 22:27:51;;;;;;;1.30;0.90;;;;;;;14.79;57.65;98951.34;219887;1279;22704;-73
2022/07/12 22:32:53;;;;;;;1.20;0.90;;;;;;;14.72;57.79;98951.15;219968;1278;22548;-74
2022/07/12 22:38:01;;;;;;;1.30;1.00;;;;;;;14.68;58.09;98956.83;220034;1277;23976;-73
2022/07/12 22:43:38;;;;;;;;;;;;;;;;;;;;;
2022/07/12 22:49:10;;;;;;;3.00;0.80;;;;;;;14.64;58.30;98954.45;220042;1278;22710;-72
2022/07/12 22:54:12;;;;;;;0.90;0.80;;;;;;;14.61;58.50;98951.75;220163;1277;22544;-74
2022/07/12 22:59:15;;;;;;;1.10;0.90;;;;;;;14.59;58.66;98952.44;220012;1278;22555;-74
2022/07/12 23:04:17;;;;;;;1.60;1.00;;;;;;;14.59;58.82;98952.77;220027;1279;24086;-74
2022/07/12 23:09:23;;;;;;;1.20;0.80;;;;;;;14.59;58.97;98947.52;220126;1277;25465;-74
2022/07/12 23:14:36;;;;;;;0.70;0.70;;;;;;;14.60;58.98;98944.46;220169;1277;22513;-73
2022/07/12 23:19:38;;;;;;;0.90;0.80;;;;;;;14.55;59.20;98943.25;220009;1276;23306;-74
2022/07/12 23:24:41;;;;;;;1.20;0.80;;;;;;;14.49;59.32;98940.85;220036;1276;22718;-72
2022/07/12 23:30:05;;;;;;;1.20;0.90;;;;;;;14.40;59.61;98942.95;220264;1276;25310;-73
2022/07/12 23:35:08;;;;;;;0.90;0.80;;;;;;;14.31;59.93;98942.05;220276;1276;25288;-74
2022/07/12 23:40:10;;;;;;;2.20;1.10;;;;;;;14.22;60.21;98934.38;220123;1277;22564;-73
2022/07/12 23:45:16;;;;;;;1.00;0.80;;;;;;;14.12;60.39;98936.77;220030;1278;24678;-73
2022/07/12 23:50:18;;;;;;;1.50;1.00;;;;;;;14.02;60.84;98936.30;220072;1277;22575;-74
2022/07/12 23:55:24;;;;;;;1.70;0.90;;;;;;;13.93;61.32;98932.12;220139;1278;23487;-74
